createdAt,value
2023-07-29T00:00:08.807Z,20.66
2023-07-29T00:03:12.718Z,20.67
2023-07-29T00:06:17.032Z,20.64
2023-07-29T00:09:21.387Z,20.53
2023-07-29T00:12:25.638Z,20.51
2023-07-29T00:15:29.687Z,20.59
2023-07-29T00:18:33.876Z,20.59
2023-07-29T00:21:38.493Z,20.54
2023-07-29T00:24:42.805Z,20.52
2023-07-29T00:27:46.977Z,20.52
2023-07-29T00:30:51.286Z,20.43
2023-07-29T00:33:55.666Z,20.46
2023-07-29T00:37:00.424Z,20.53
2023-07-29T00:40:22.855Z,20.52
2023-07-29T00:43:27.125Z,20.51
2023-07-29T00:46:35.770Z,20.61
2023-07-29T00:49:40.145Z,20.57
2023-07-29T00:52:44.643Z,20.53
2023-07-29T00:55:48.995Z,20.53
2023-07-29T00:58:59.689Z,20.50
2023-07-29T01:02:04.233Z,20.50
2023-07-29T01:05:08.446Z,20.47
2023-07-29T01:08:45.620Z,20.45
2023-07-29T01:11:59.095Z,20.46
2023-07-29T01:15:20.844Z,20.46
2023-07-29T01:18:30.694Z,20.43
2023-07-29T01:21:36.528Z,20.41
2023-07-29T01:24:40.793Z,20.34
2023-07-29T01:27:48.285Z,20.33
2023-07-29T01:30:59.602Z,20.29
2023-07-29T01:34:14.491Z,20.28
2023-07-29T01:37:23.405Z,20.28
2023-07-29T01:40:29.234Z,20.33
2023-07-29T01:43:33.997Z,20.37
2023-07-29T01:46:38.702Z,20.41
2023-07-29T01:49:43.078Z,20.42
2023-07-29T01:52:47.376Z,20.42
2023-07-29T01:55:51.828Z,20.45
2023-07-29T01:58:55.990Z,20.40
2023-07-29T02:02:00.114Z,20.37
2023-07-29T02:05:04.151Z,20.37
2023-07-29T02:08:08.402Z,20.36
2023-07-29T02:11:12.370Z,20.33
2023-07-29T02:14:16.475Z,20.37
2023-07-29T02:17:20.657Z,20.37
2023-07-29T02:20:24.610Z,20.33
2023-07-29T02:23:28.678Z,20.32
2023-07-29T02:26:33.292Z,20.33
2023-07-29T02:29:37.686Z,20.32
2023-07-29T02:32:41.719Z,20.32
2023-07-29T02:35:45.864Z,20.32
2023-07-29T02:38:49.820Z,20.28
2023-07-29T02:41:53.872Z,20.21
2023-07-29T02:44:58.186Z,20.13
2023-07-29T02:48:02.350Z,20.09
2023-07-29T02:51:06.942Z,20.06
2023-07-29T02:54:10.885Z,20.05
2023-07-29T02:57:15.247Z,19.94
2023-07-29T03:00:19.502Z,19.92
2023-07-29T03:03:23.885Z,19.93
2023-07-29T03:06:28.025Z,19.89
2023-07-29T03:09:32.256Z,19.88
2023-07-29T03:12:36.022Z,19.85
2023-07-29T03:15:40.146Z,19.85
2023-07-29T03:18:45.231Z,19.81
2023-07-29T03:21:50.426Z,19.79
2023-07-29T03:24:54.730Z,19.78
2023-07-29T03:27:58.960Z,19.78
2023-07-29T03:31:03.879Z,19.73
2023-07-29T03:34:08.309Z,19.72
2023-07-29T03:37:12.788Z,19.72
2023-07-29T03:40:17.093Z,19.67
2023-07-29T03:43:21.350Z,19.63
2023-07-29T03:46:25.968Z,19.59
2023-07-29T03:49:30.026Z,19.58
2023-07-29T03:52:34.248Z,19.60
2023-07-29T03:55:38.649Z,19.58
2023-07-29T03:58:42.806Z,19.57
2023-07-29T04:01:46.744Z,19.53
2023-07-29T04:04:50.647Z,19.53
2023-07-29T04:07:55.067Z,19.52
2023-07-29T04:10:59.284Z,19.52
2023-07-29T04:14:03.545Z,19.52
2023-07-29T04:17:08.401Z,19.51
2023-07-29T04:20:12.594Z,19.53
2023-07-29T04:23:16.888Z,19.53
2023-07-29T04:26:21.156Z,19.55
2023-07-29T04:29:25.539Z,19.58
2023-07-29T04:32:29.948Z,19.61
2023-07-29T04:35:34.456Z,19.64
2023-07-29T04:38:39.270Z,19.70
2023-07-29T04:41:44.434Z,19.72
2023-07-29T04:44:48.611Z,19.72
2023-07-29T04:47:52.677Z,19.75
2023-07-29T04:50:56.880Z,19.80
2023-07-29T04:54:01.431Z,19.82
2023-07-29T04:57:05.976Z,19.89
2023-07-29T05:00:10.980Z,19.95
2023-07-29T05:03:15.121Z,20.04
2023-07-29T05:06:19.095Z,20.12
2023-07-29T05:09:23.496Z,20.20
2023-07-29T05:12:27.827Z,20.28
2023-07-29T05:15:32.138Z,20.34
2023-07-29T05:18:36.170Z,20.49
2023-07-29T05:21:40.913Z,20.61
2023-07-29T05:24:45.326Z,20.70
2023-07-29T05:27:49.604Z,20.74
2023-07-29T05:30:53.669Z,20.79
2023-07-29T05:33:57.781Z,20.81
2023-07-29T05:37:01.851Z,20.81
2023-07-29T05:40:08.007Z,20.87
2023-07-29T05:43:11.996Z,20.91
2023-07-29T05:46:16.461Z,20.96
2023-07-29T05:49:20.535Z,20.96
2023-07-29T05:52:24.518Z,21.00
2023-07-29T05:55:28.816Z,21.09
2023-07-29T05:58:32.925Z,21.17
2023-07-29T06:01:37.407Z,21.23
2023-07-29T06:04:41.614Z,21.38
2023-07-29T06:07:46.199Z,21.51
2023-07-29T06:10:50.451Z,21.66
2023-07-29T06:13:54.644Z,21.75
2023-07-29T06:16:58.890Z,21.94
2023-07-29T06:20:04.044Z,22.12
2023-07-29T06:23:09.677Z,22.25
2023-07-29T06:26:13.511Z,22.34
2023-07-29T06:29:17.763Z,22.33
2023-07-29T06:32:21.924Z,22.34
2023-07-29T06:35:25.949Z,22.40
2023-07-29T06:38:29.926Z,22.52
2023-07-29T06:41:34.187Z,22.52
2023-07-29T06:44:38.289Z,22.55
2023-07-29T06:47:42.475Z,22.70
2023-07-29T06:50:46.346Z,22.74
2023-07-29T06:53:50.115Z,22.81
2023-07-29T06:56:54.285Z,22.74
2023-07-29T06:59:58.424Z,22.75
2023-07-29T07:03:02.506Z,22.95
2023-07-29T07:06:06.840Z,23.22
2023-07-29T07:09:10.676Z,23.48
2023-07-29T07:12:14.885Z,23.74
2023-07-29T07:15:18.749Z,24.08
2023-07-29T07:18:25.707Z,24.61
2023-07-29T07:21:29.695Z,24.85
2023-07-29T07:24:33.693Z,24.72
2023-07-29T07:27:38.410Z,24.47
2023-07-29T07:30:42.799Z,24.34
2023-07-29T07:33:46.538Z,24.16
2023-07-29T07:36:50.660Z,24.07
2023-07-29T07:39:55.103Z,24.06
2023-07-29T07:42:59.193Z,24.20
2023-07-29T07:46:06.551Z,24.35
2023-07-29T07:49:10.671Z,24.63
2023-07-29T07:52:14.327Z,24.60
2023-07-29T07:55:18.280Z,24.39
2023-07-29T07:58:22.703Z,24.37
2023-07-29T08:01:26.684Z,24.48
2023-07-29T08:04:30.818Z,24.85
2023-07-29T08:07:34.910Z,25.29
2023-07-29T08:10:39.425Z,25.20
2023-07-29T08:13:43.809Z,25.07
2023-07-29T08:16:47.645Z,24.92
2023-07-29T08:19:51.766Z,24.94
2023-07-29T08:22:56.054Z,25.01
2023-07-29T08:26:02.814Z,24.97
2023-07-29T08:29:07.274Z,24.82
2023-07-29T08:32:11.696Z,24.75
2023-07-29T08:35:15.868Z,24.77
2023-07-29T08:38:20.868Z,25.21
2023-07-29T08:41:36.110Z,25.74
2023-07-29T08:44:44.906Z,25.84
2023-07-29T08:47:51.376Z,25.85
2023-07-29T08:50:56.366Z,25.74
2023-07-29T08:54:00.972Z,25.63
2023-07-29T08:57:05.903Z,25.46
2023-07-29T09:00:11.427Z,25.22
2023-07-29T09:03:15.658Z,25.44
2023-07-29T09:06:21.502Z,25.75
2023-07-29T09:09:26.805Z,26.23
2023-07-29T09:12:30.625Z,26.39
2023-07-29T09:15:36.774Z,26.39
2023-07-29T09:18:40.815Z,26.30
2023-07-29T09:21:48.019Z,26.16
2023-07-29T09:24:52.804Z,26.22
2023-07-29T09:28:10.342Z,26.35
2023-07-29T09:31:22.459Z,26.32
2023-07-29T09:34:28.937Z,26.41
2023-07-29T09:37:33.426Z,26.31
2023-07-29T09:40:39.351Z,26.34
2023-07-29T09:43:43.342Z,26.17
2023-07-29T09:46:47.835Z,25.92
2023-07-29T09:49:53.561Z,25.74
2023-07-29T09:53:01.421Z,25.60
2023-07-29T09:56:06.175Z,25.51
2023-07-29T09:59:11.127Z,25.44
2023-07-29T10:02:17.617Z,25.44
2023-07-29T10:05:24.610Z,25.60
2023-07-29T10:08:30.975Z,25.65
2023-07-29T10:11:36.028Z,25.76
2023-07-29T10:14:40.394Z,25.83
2023-07-29T10:17:49.396Z,25.90
2023-07-29T10:20:55.632Z,25.99
2023-07-29T10:24:02.426Z,25.98
2023-07-29T10:27:08.028Z,25.95
2023-07-29T10:30:13.910Z,25.80
2023-07-29T10:33:18.829Z,25.75
2023-07-29T10:36:23.516Z,25.71
2023-07-29T10:39:27.996Z,25.71
2023-07-29T10:42:31.953Z,25.73
2023-07-29T10:45:40.844Z,25.85
2023-07-29T10:48:53.954Z,25.87
2023-07-29T10:51:58.134Z,25.80
2023-07-29T10:55:04.045Z,25.81
2023-07-29T10:58:10.542Z,25.95
2023-07-29T11:01:28.133Z,26.14
2023-07-29T11:04:32.840Z,26.14
2023-07-29T11:07:48.195Z,26.22
2023-07-29T11:10:59.249Z,26.37
2023-07-29T11:14:03.194Z,26.41
2023-07-29T11:17:08.327Z,26.35
2023-07-29T11:20:14.685Z,26.22
2023-07-29T11:23:19.507Z,26.09
2023-07-29T11:26:23.797Z,25.94
2023-07-29T11:29:28.063Z,25.81
2023-07-29T11:32:33.354Z,25.93
2023-07-29T11:35:37.309Z,25.84
2023-07-29T11:38:41.613Z,25.91
2023-07-29T11:41:47.169Z,26.06
2023-07-29T11:44:51.515Z,26.03
2023-07-29T11:47:55.708Z,25.96
2023-07-29T11:50:59.834Z,25.93
2023-07-29T11:54:04.498Z,25.92
2023-07-29T11:57:09.654Z,26.05
2023-07-29T12:00:15.813Z,26.23
2023-07-29T12:03:20.245Z,26.19
2023-07-29T12:06:26.075Z,26.21
2023-07-29T12:09:30.382Z,26.19
2023-07-29T12:12:34.670Z,26.06
2023-07-29T12:15:41.120Z,26.20
2023-07-29T12:18:45.035Z,26.05
2023-07-29T12:21:50.492Z,25.92
2023-07-29T12:24:56.213Z,25.91
2023-07-29T12:28:07.961Z,25.97
2023-07-29T12:31:12.219Z,26.02
2023-07-29T12:34:21.230Z,26.04
2023-07-29T12:37:33.523Z,26.21
2023-07-29T12:40:40.905Z,26.29
2023-07-29T12:43:46.165Z,26.16
2023-07-29T12:46:50.484Z,26.03
2023-07-29T12:49:54.295Z,26.10
2023-07-29T12:52:58.851Z,26.19
2023-07-29T12:56:02.948Z,26.13
2023-07-29T12:59:07.405Z,26.30
2023-07-29T13:02:11.575Z,26.29
2023-07-29T13:05:15.642Z,26.23
2023-07-29T13:08:21.108Z,26.09
2023-07-29T13:11:27.144Z,26.04
2023-07-29T13:14:31.119Z,25.95
2023-07-29T13:17:35.628Z,26.02
2023-07-29T13:20:40.186Z,26.12
2023-07-29T13:23:44.356Z,26.22
2023-07-29T13:26:48.307Z,26.17
2023-07-29T13:29:52.354Z,26.22
2023-07-29T13:32:56.960Z,26.29
2023-07-29T13:36:04.026Z,26.27
2023-07-29T13:39:08.114Z,26.31
2023-07-29T13:42:12.219Z,26.28
2023-07-29T13:45:16.562Z,26.09
2023-07-29T13:48:21.226Z,26.26
2023-07-29T13:51:25.330Z,26.17
2023-07-29T13:54:30.023Z,26.22
2023-07-29T13:57:34.781Z,26.31
2023-07-29T14:00:39.152Z,26.28
2023-07-29T14:03:43.474Z,26.27
2023-07-29T14:06:50.897Z,26.12
2023-07-29T14:09:59.787Z,26.16
2023-07-29T14:13:06.348Z,26.22
2023-07-29T14:16:10.654Z,26.29
2023-07-29T14:19:14.770Z,26.20
2023-07-29T14:22:18.774Z,26.24
2023-07-29T14:25:23.380Z,26.18
2023-07-29T14:28:28.006Z,26.13
2023-07-29T14:31:32.446Z,26.00
2023-07-29T14:34:36.983Z,25.76
2023-07-29T14:37:41.306Z,25.44
2023-07-29T14:40:45.669Z,25.17
2023-07-29T14:43:49.988Z,24.95
2023-07-29T14:46:54.713Z,24.77
2023-07-29T14:49:58.593Z,24.76
2023-07-29T14:53:02.634Z,24.58
2023-07-29T14:56:06.609Z,24.49
2023-07-29T14:59:11.348Z,24.36
2023-07-29T15:02:15.330Z,24.41
2023-07-29T15:05:19.340Z,24.27
2023-07-29T15:08:25.771Z,24.08
2023-07-29T15:11:29.913Z,24.00
2023-07-29T15:14:34.336Z,23.81
2023-07-29T15:17:38.997Z,23.56
2023-07-29T15:20:43.176Z,23.57
2023-07-29T15:23:47.392Z,23.57
2023-07-29T15:26:51.785Z,23.30
2023-07-29T15:29:56.479Z,23.24
2023-07-29T15:33:00.831Z,23.32
2023-07-29T15:36:05.568Z,23.31
2023-07-29T15:39:09.725Z,23.14
2023-07-29T15:42:14.107Z,23.00
2023-07-29T15:45:18.362Z,22.97
2023-07-29T15:48:22.705Z,22.98
2023-07-29T15:51:27.908Z,22.88
2023-07-29T15:54:31.757Z,22.97
2023-07-29T15:57:36.028Z,22.99
2023-07-29T16:00:40.821Z,23.03
2023-07-29T16:03:44.784Z,23.11
2023-07-29T16:06:49.135Z,23.26
2023-07-29T16:09:52.893Z,23.29
2023-07-29T16:12:57.132Z,23.34
2023-07-29T16:16:01.224Z,23.14
2023-07-29T16:19:07.218Z,22.74
2023-07-29T16:22:11.116Z,22.65
2023-07-29T16:25:15.112Z,22.53
2023-07-29T16:28:19.295Z,22.45
2023-07-29T16:31:23.974Z,22.44
2023-07-29T16:34:28.336Z,22.51
2023-07-29T16:37:32.378Z,22.42
2023-07-29T16:40:36.492Z,22.33
2023-07-29T16:43:40.709Z,22.22
2023-07-29T16:46:45.844Z,22.08
2023-07-29T16:49:49.994Z,22.04
2023-07-29T16:52:55.015Z,22.06
2023-07-29T16:55:58.944Z,22.10
2023-07-29T16:59:02.945Z,22.08
2023-07-29T17:02:08.457Z,22.22
2023-07-29T17:05:12.741Z,22.24
2023-07-29T17:08:16.762Z,22.23
2023-07-29T17:11:20.600Z,22.28
2023-07-29T17:14:25.483Z,22.19
2023-07-29T17:17:29.872Z,22.14
2023-07-29T17:20:34.420Z,22.01
2023-07-29T17:23:38.648Z,21.89
2023-07-29T17:26:42.601Z,21.83
2023-07-29T17:29:47.030Z,21.79
2023-07-29T17:32:51.034Z,21.73
2023-07-29T17:35:56.346Z,21.67
2023-07-29T17:39:01.616Z,21.68
2023-07-29T17:42:07.578Z,21.67
2023-07-29T17:45:11.560Z,21.70
2023-07-29T17:48:15.857Z,21.67
2023-07-29T17:51:20.208Z,21.70
2023-07-29T17:54:24.580Z,21.69
2023-07-29T17:57:28.766Z,21.70
2023-07-29T18:00:33.562Z,21.77
2023-07-29T18:03:37.948Z,21.79
2023-07-29T18:06:42.136Z,21.76
2023-07-29T18:09:46.435Z,21.80
2023-07-29T18:12:50.560Z,21.95
2023-07-29T18:15:54.680Z,21.96
2023-07-29T18:18:59.095Z,21.97
2023-07-29T18:22:03.272Z,21.85
2023-07-29T18:25:08.200Z,21.79
2023-07-29T18:28:12.557Z,21.71
2023-07-29T18:31:17.199Z,21.68
2023-07-29T18:34:22.370Z,21.64
2023-07-29T18:37:26.729Z,21.62
2023-07-29T18:40:33.799Z,21.59
2023-07-29T18:43:38.172Z,21.50
2023-07-29T18:46:42.610Z,21.45
2023-07-29T18:49:46.608Z,21.39
2023-07-29T18:52:50.627Z,21.36
2023-07-29T18:55:55.247Z,21.32
2023-07-29T18:58:59.415Z,21.24
2023-07-29T19:02:03.848Z,21.14
2023-07-29T19:05:10.398Z,21.10
2023-07-29T19:08:14.363Z,21.04
2023-07-29T19:11:18.620Z,20.98
2023-07-29T19:14:23.088Z,20.94
2023-07-29T19:17:27.283Z,20.86
2023-07-29T19:20:31.415Z,20.83
2023-07-29T19:23:35.928Z,20.81
2023-07-29T19:26:40.495Z,20.77
2023-07-29T19:29:45.389Z,20.72
2023-07-29T19:32:50.449Z,20.68
2023-07-29T19:35:56.441Z,20.66
2023-07-29T19:39:00.371Z,20.60
2023-07-29T19:42:05.429Z,20.59
2023-07-29T19:45:10.143Z,20.59
2023-07-29T19:48:14.451Z,20.48
2023-07-29T19:51:19.503Z,20.43
2023-07-29T19:54:23.492Z,20.38
2023-07-29T19:57:27.498Z,20.39
2023-07-29T20:00:32.564Z,20.37
2023-07-29T20:03:36.583Z,20.36
2023-07-29T20:06:40.926Z,20.39
2023-07-29T20:09:45.298Z,20.33
2023-07-29T20:12:49.678Z,20.27
2023-07-29T20:15:54.420Z,20.23
2023-07-29T20:18:58.463Z,20.19
2023-07-29T20:22:02.468Z,20.22
2023-07-29T20:25:06.948Z,20.16
2023-07-29T20:28:12.952Z,20.11
2023-07-29T20:31:16.960Z,20.03
2023-07-29T20:34:20.980Z,20.07
2023-07-29T20:37:25.378Z,20.07
2023-07-29T20:40:29.551Z,19.97
2023-07-29T20:43:33.765Z,19.94
2023-07-29T20:46:38.280Z,19.96
2023-07-29T20:49:46.237Z,19.91
2023-07-29T20:52:50.545Z,19.90
2023-07-29T20:55:54.600Z,19.97
2023-07-29T20:58:58.489Z,19.96
2023-07-29T21:02:05.085Z,19.89
2023-07-29T21:05:09.288Z,19.83
2023-07-29T21:08:13.227Z,19.76
2023-07-29T21:11:17.448Z,19.71
2023-07-29T21:14:24.217Z,19.67
2023-07-29T21:17:28.157Z,19.64
2023-07-29T21:20:32.121Z,19.64
2023-07-29T21:23:36.347Z,19.65
2023-07-29T21:26:41.090Z,19.66
2023-07-29T21:29:45.221Z,19.73
2023-07-29T21:32:48.995Z,19.67
2023-07-29T21:35:53.041Z,19.72
2023-07-29T21:38:58.464Z,19.69
2023-07-29T21:42:02.905Z,19.66
2023-07-29T21:45:07.316Z,19.62
2023-07-29T21:48:11.252Z,19.65
2023-07-29T21:51:15.354Z,19.58
2023-07-29T21:54:19.868Z,19.53
2023-07-29T21:57:24.781Z,19.52
2023-07-29T22:00:29.011Z,19.52
2023-07-29T22:03:33.109Z,19.50
2023-07-29T22:06:37.958Z,19.50
2023-07-29T22:09:42.173Z,19.51
2023-07-29T22:12:46.696Z,19.46
2023-07-29T22:15:50.778Z,19.48
2023-07-29T22:18:54.575Z,19.45
2023-07-29T22:21:58.529Z,19.42
2023-07-29T22:25:02.817Z,19.38
2023-07-29T22:28:07.255Z,19.42
2023-07-29T22:31:11.385Z,19.42
2023-07-29T22:34:15.935Z,19.36
2023-07-29T22:37:19.721Z,19.27
2023-07-29T22:40:24.156Z,19.22
2023-07-29T22:43:28.327Z,19.18
2023-07-29T22:46:32.802Z,19.17
2023-07-29T22:49:36.912Z,19.14
2023-07-29T22:52:41.153Z,19.14
2023-07-29T22:55:46.800Z,19.13
2023-07-29T22:58:51.242Z,19.16
2023-07-29T23:01:55.738Z,19.12
2023-07-29T23:05:00.729Z,19.07
2023-07-29T23:08:04.927Z,19.04
2023-07-29T23:11:08.987Z,19.02
2023-07-29T23:14:12.853Z,19.01
2023-07-29T23:17:16.870Z,18.95
2023-07-29T23:20:20.865Z,18.92
2023-07-29T23:23:25.200Z,18.87
2023-07-29T23:26:29.456Z,18.88
2023-07-29T23:29:33.428Z,18.80
2023-07-29T23:32:37.146Z,18.81
2023-07-29T23:35:41.202Z,18.81
2023-07-29T23:38:45.587Z,18.75
2023-07-29T23:41:49.528Z,18.76
2023-07-29T23:44:53.550Z,18.70
2023-07-29T23:47:57.472Z,18.70
2023-07-29T23:51:01.577Z,18.64
2023-07-29T23:54:06.378Z,18.66
2023-07-29T23:57:10.653Z,18.65
